createdAt,value
2017-08-30T00:00:10.029Z,0
2017-08-30T00:00:50.488Z,0
2017-08-30T00:01:30.952Z,0
2017-08-30T00:02:11.391Z,0
2017-08-30T00:02:51.848Z,0
2017-08-30T00:03:32.293Z,0
2017-08-30T00:04:12.740Z,0
2017-08-30T00:04:53.200Z,0
2017-08-30T00:05:33.643Z,0
2017-08-30T00:06:14.107Z,0
2017-08-30T00:06:54.561Z,0
2017-08-30T00:07:35.017Z,0
2017-08-30T00:08:15.470Z,0
2017-08-30T00:08:55.929Z,0
2017-08-30T00:09:36.380Z,0
2017-08-30T00:10:16.831Z,0
2017-08-30T00:10:57.289Z,0
2017-08-30T00:11:37.753Z,0
2017-08-30T00:12:18.210Z,0
2017-08-30T00:12:58.664Z,0
2017-08-30T00:13:39.113Z,0
2017-08-30T00:14:19.562Z,0
2017-08-30T00:15:00.022Z,0
2017-08-30T00:15:40.473Z,0
2017-08-30T00:16:20.929Z,0
2017-08-30T00:17:01.384Z,0
2017-08-30T00:17:41.830Z,0
2017-08-30T00:18:22.286Z,0
2017-08-30T00:19:02.733Z,0
2017-08-30T00:19:43.200Z,0
2017-08-30T00:20:23.646Z,0
2017-08-30T00:21:04.099Z,0
2017-08-30T00:21:44.552Z,0
2017-08-30T00:22:24.999Z,0
2017-08-30T00:23:05.456Z,0
2017-08-30T00:23:45.903Z,0
2017-08-30T00:24:26.346Z,0
2017-08-30T00:25:06.823Z,0
2017-08-30T00:25:47.272Z,0
2017-08-30T00:26:27.729Z,0
2017-08-30T00:27:08.248Z,0
2017-08-30T00:27:48.706Z,0
2017-08-30T00:28:29.163Z,0
2017-08-30T00:29:09.616Z,0
2017-08-30T00:29:50.080Z,0
2017-08-30T00:30:30.546Z,0
2017-08-30T00:31:10.999Z,0
2017-08-30T00:31:51.450Z,0
2017-08-30T00:32:31.903Z,0
2017-08-30T00:33:12.406Z,0
2017-08-30T00:33:52.865Z,0
2017-08-30T00:34:33.320Z,0
2017-08-30T00:35:13.814Z,0
2017-08-30T00:35:54.268Z,0
2017-08-30T00:36:34.720Z,0
2017-08-30T00:37:15.291Z,0
2017-08-30T00:37:55.743Z,0
2017-08-30T00:38:36.200Z,0
2017-08-30T00:39:16.653Z,0
2017-08-30T00:39:57.130Z,0
2017-08-30T00:40:37.568Z,0
2017-08-30T00:41:18.014Z,0
2017-08-30T00:41:58.482Z,0
2017-08-30T00:42:38.926Z,0
2017-08-30T00:43:19.375Z,0
2017-08-30T00:43:59.841Z,0
2017-08-30T00:44:40.295Z,0
2017-08-30T00:45:20.748Z,0
2017-08-30T00:46:01.202Z,0
2017-08-30T00:46:41.658Z,0
2017-08-30T00:47:22.109Z,0
2017-08-30T00:48:02.565Z,0
2017-08-30T00:48:43.019Z,0
2017-08-30T00:49:23.476Z,0
2017-08-30T00:50:03.928Z,0
2017-08-30T00:50:44.384Z,0
2017-08-30T00:51:24.839Z,0
2017-08-30T00:52:05.298Z,0
2017-08-30T00:52:45.754Z,0
2017-08-30T00:53:26.265Z,0
2017-08-30T00:54:06.780Z,0
2017-08-30T00:54:47.238Z,0
2017-08-30T00:55:27.692Z,0
2017-08-30T00:56:08.142Z,0
2017-08-30T00:56:48.607Z,0
2017-08-30T00:57:29.072Z,0
2017-08-30T00:58:09.523Z,0
2017-08-30T00:58:49.980Z,0
2017-08-30T00:59:30.435Z,0
2017-08-30T01:00:10.889Z,0
2017-08-30T01:00:51.342Z,0
2017-08-30T01:01:31.801Z,0
2017-08-30T01:02:12.249Z,0
2017-08-30T01:02:52.696Z,0
2017-08-30T01:03:33.168Z,0
2017-08-30T01:04:13.597Z,0
2017-08-30T01:04:54.050Z,0
2017-08-30T01:05:34.500Z,0
2017-08-30T01:06:14.957Z,0
2017-08-30T01:06:55.408Z,0
2017-08-30T01:07:35.894Z,0
2017-08-30T01:08:16.326Z,0
2017-08-30T01:08:56.783Z,0
2017-08-30T01:09:37.235Z,0
2017-08-30T01:10:17.685Z,0
2017-08-30T01:10:58.145Z,0
2017-08-30T01:11:38.594Z,0
2017-08-30T01:12:19.045Z,0
2017-08-30T01:12:59.523Z,0
2017-08-30T01:13:39.951Z,0
2017-08-30T01:14:20.403Z,0
2017-08-30T01:15:00.859Z,0
2017-08-30T01:15:41.313Z,0
2017-08-30T01:16:21.770Z,0
2017-08-30T01:17:02.218Z,0
2017-08-30T01:17:42.669Z,0
2017-08-30T01:18:23.122Z,0
2017-08-30T01:19:03.586Z,0
2017-08-30T01:19:44.046Z,0
2017-08-30T01:20:24.503Z,0
2017-08-30T01:21:04.973Z,0
2017-08-30T01:21:45.425Z,0
2017-08-30T01:22:25.883Z,0
2017-08-30T01:23:06.341Z,0
2017-08-30T01:23:46.801Z,0
2017-08-30T01:24:27.244Z,0
2017-08-30T01:25:07.695Z,0
2017-08-30T01:25:48.144Z,0
2017-08-30T01:26:28.611Z,0
2017-08-30T01:27:09.073Z,0
2017-08-30T01:27:49.524Z,0
2017-08-30T01:28:29.975Z,0
2017-08-30T01:29:10.432Z,0
2017-08-30T01:29:50.892Z,0
2017-08-30T01:30:31.352Z,0
2017-08-30T01:31:11.813Z,0
2017-08-30T01:31:52.263Z,0
2017-08-30T01:32:32.714Z,0
2017-08-30T01:33:13.177Z,0
2017-08-30T01:33:53.620Z,0
2017-08-30T01:34:34.076Z,0
2017-08-30T01:35:14.532Z,0
2017-08-30T01:35:54.999Z,0
2017-08-30T01:36:35.453Z,0
2017-08-30T01:37:15.895Z,0
2017-08-30T01:37:56.354Z,0
2017-08-30T01:38:36.817Z,0
2017-08-30T01:39:17.267Z,0
2017-08-30T01:39:57.725Z,0
2017-08-30T01:40:38.182Z,0
2017-08-30T01:41:18.642Z,0
2017-08-30T01:41:59.103Z,0
2017-08-30T01:42:39.558Z,0
2017-08-30T01:43:20.008Z,0
2017-08-30T01:44:00.466Z,0
2017-08-30T01:44:40.920Z,0
2017-08-30T01:45:21.389Z,0
2017-08-30T01:46:01.910Z,0
2017-08-30T01:46:42.364Z,0
2017-08-30T01:47:22.817Z,0
2017-08-30T01:48:03.381Z,0
2017-08-30T01:48:43.793Z,0
2017-08-30T01:49:24.243Z,0
2017-08-30T01:50:04.803Z,0
2017-08-30T01:50:45.210Z,0
2017-08-30T01:51:25.660Z,0
2017-08-30T01:52:06.119Z,0
2017-08-30T01:52:46.579Z,0
2017-08-30T01:53:27.102Z,0
2017-08-30T01:54:07.613Z,0
2017-08-30T01:54:48.068Z,0
2017-08-30T01:55:28.612Z,0
2017-08-30T01:56:09.071Z,0
2017-08-30T01:56:49.530Z,0
2017-08-30T01:57:29.988Z,0
2017-08-30T01:58:10.439Z,0
2017-08-30T01:58:50.896Z,0
2017-08-30T01:59:31.351Z,0
2017-08-30T02:00:11.812Z,0
2017-08-30T02:00:52.265Z,0
2017-08-30T02:01:32.727Z,0
2017-08-30T02:02:13.191Z,0
2017-08-30T02:02:53.643Z,0
2017-08-30T02:03:34.104Z,0
2017-08-30T02:04:14.565Z,0
2017-08-30T02:04:55.024Z,0
2017-08-30T02:05:35.472Z,0
2017-08-30T02:06:15.949Z,0
2017-08-30T02:06:56.398Z,0
2017-08-30T02:07:36.851Z,0
2017-08-30T02:08:17.311Z,0
2017-08-30T02:08:57.771Z,0
2017-08-30T02:09:38.232Z,0
2017-08-30T02:10:19.488Z,0
2017-08-30T02:10:59.944Z,0
2017-08-30T02:11:40.412Z,0
2017-08-30T02:12:20.861Z,0
2017-08-30T02:13:01.321Z,0
2017-08-30T02:13:41.782Z,0
2017-08-30T02:14:22.233Z,0
2017-08-30T02:15:02.688Z,0
2017-08-30T02:15:43.148Z,0
2017-08-30T02:16:23.605Z,0
2017-08-30T02:17:04.054Z,0
2017-08-30T02:17:44.513Z,0
2017-08-30T02:18:24.966Z,0
2017-08-30T02:19:05.419Z,0
2017-08-30T02:19:45.896Z,0
2017-08-30T02:20:26.324Z,0
2017-08-30T02:21:06.782Z,0
2017-08-30T02:21:47.241Z,0
2017-08-30T02:22:27.686Z,0
2017-08-30T02:23:08.149Z,0
2017-08-30T02:23:48.605Z,0
2017-08-30T02:24:29.063Z,0
2017-08-30T02:25:09.536Z,0
2017-08-30T02:25:49.969Z,0
2017-08-30T02:26:30.421Z,0
2017-08-30T02:27:10.882Z,0
2017-08-30T02:27:51.342Z,0
2017-08-30T02:28:31.800Z,0
2017-08-30T02:29:12.260Z,0
2017-08-30T02:29:52.718Z,0
2017-08-30T02:30:33.169Z,0
2017-08-30T02:31:13.638Z,0
2017-08-30T02:31:54.077Z,0
2017-08-30T02:32:34.536Z,0
2017-08-30T02:33:14.984Z,0
2017-08-30T02:33:55.439Z,0
2017-08-30T02:34:35.895Z,0
2017-08-30T02:35:16.335Z,0
2017-08-30T02:35:56.790Z,0
2017-08-30T02:36:37.249Z,0
2017-08-30T02:37:17.705Z,0
2017-08-30T02:37:58.161Z,0
2017-08-30T02:38:38.616Z,0
2017-08-30T02:39:19.074Z,0
2017-08-30T02:39:59.535Z,0
2017-08-30T02:40:39.990Z,0
2017-08-30T02:41:20.436Z,0
2017-08-30T02:42:00.888Z,0
2017-08-30T02:42:41.363Z,0
2017-08-30T02:43:21.943Z,0
2017-08-30T02:44:02.401Z,0
2017-08-30T02:44:42.858Z,0
2017-08-30T02:45:23.375Z,0
2017-08-30T02:46:03.823Z,0
2017-08-30T02:46:44.284Z,0
2017-08-30T02:47:24.745Z,0
2017-08-30T02:48:05.236Z,0
2017-08-30T02:48:45.672Z,0
2017-08-30T02:49:26.137Z,0
2017-08-30T02:50:06.597Z,0
2017-08-30T02:50:47.042Z,0
2017-08-30T02:51:27.503Z,0
2017-08-30T02:52:07.956Z,0
2017-08-30T02:52:48.409Z,0
2017-08-30T02:53:28.861Z,0
2017-08-30T02:54:09.333Z,0
2017-08-30T02:54:49.786Z,0
2017-08-30T02:55:30.249Z,0
2017-08-30T02:56:10.709Z,0
2017-08-30T02:56:51.164Z,0
2017-08-30T02:57:31.619Z,0
2017-08-30T02:58:12.093Z,0
2017-08-30T02:58:52.537Z,0
2017-08-30T02:59:32.996Z,0
2017-08-30T03:00:13.450Z,0
2017-08-30T03:00:53.907Z,0
2017-08-30T03:01:34.359Z,0
2017-08-30T03:02:14.817Z,0
2017-08-30T03:02:55.266Z,0
2017-08-30T03:03:35.718Z,0
2017-08-30T03:04:16.175Z,0
2017-08-30T03:04:56.637Z,0
2017-08-30T03:05:37.097Z,0
2017-08-30T03:06:17.560Z,0
2017-08-30T03:06:57.998Z,0
2017-08-30T03:07:38.458Z,0
2017-08-30T03:08:18.877Z,0
2017-08-30T03:08:59.331Z,0
2017-08-30T03:09:39.783Z,0
2017-08-30T03:10:20.249Z,0
2017-08-30T03:11:00.703Z,0
2017-08-30T03:11:41.159Z,0
2017-08-30T03:12:21.614Z,0
2017-08-30T03:13:02.072Z,0
2017-08-30T03:13:42.527Z,0
2017-08-30T03:14:22.991Z,0
2017-08-30T03:15:03.444Z,0
2017-08-30T03:15:43.908Z,0
2017-08-30T03:16:24.362Z,0
2017-08-30T03:17:04.831Z,0
2017-08-30T03:17:45.269Z,0
2017-08-30T03:18:25.726Z,0
2017-08-30T03:19:06.228Z,0
2017-08-30T03:19:46.678Z,0
2017-08-30T03:20:27.133Z,0
2017-08-30T03:21:07.595Z,0
2017-08-30T03:21:48.057Z,0
2017-08-30T03:24:06.136Z,0
2017-08-30T03:24:46.585Z,0
2017-08-30T03:25:27.040Z,0
2017-08-30T03:26:07.499Z,0
2017-08-30T03:26:47.942Z,0
2017-08-30T03:27:28.392Z,0
2017-08-30T03:28:08.849Z,0
2017-08-30T03:28:49.309Z,0
2017-08-30T03:29:29.769Z,0
2017-08-30T03:30:10.229Z,0
2017-08-30T03:30:50.683Z,0
2017-08-30T03:31:31.157Z,0
2017-08-30T03:32:11.581Z,0
2017-08-30T03:32:52.039Z,0
2017-08-30T03:33:32.494Z,0
2017-08-30T03:34:12.952Z,0
2017-08-30T03:34:53.402Z,0
2017-08-30T03:35:33.856Z,0
2017-08-30T03:36:14.317Z,0
2017-08-30T03:36:54.769Z,0
2017-08-30T03:37:35.223Z,0
2017-08-30T03:38:15.686Z,0
2017-08-30T03:38:56.140Z,0
2017-08-30T03:39:36.601Z,0
2017-08-30T03:40:17.062Z,0
2017-08-30T03:40:57.512Z,0
2017-08-30T03:41:37.969Z,0
2017-08-30T03:42:18.421Z,0
2017-08-30T03:42:58.880Z,0
2017-08-30T03:43:39.326Z,0
2017-08-30T03:44:19.807Z,0
2017-08-30T03:45:00.254Z,0
2017-08-30T03:45:40.705Z,0
2017-08-30T03:46:21.252Z,0
2017-08-30T03:47:01.706Z,0
2017-08-30T03:47:42.168Z,0
2017-08-30T03:48:22.620Z,0
2017-08-30T03:49:03.088Z,0
2017-08-30T03:49:43.549Z,0
2017-08-30T03:50:24.000Z,0
2017-08-30T03:51:04.461Z,0
2017-08-30T03:51:44.906Z,0
2017-08-30T03:52:25.374Z,0
2017-08-30T03:53:05.900Z,0
2017-08-30T03:53:46.372Z,0
2017-08-30T03:54:26.820Z,0
2017-08-30T03:55:07.281Z,0
2017-08-30T03:55:47.729Z,0
2017-08-30T03:56:28.201Z,0
2017-08-30T03:57:08.657Z,0
2017-08-30T03:57:49.099Z,0
2017-08-30T03:58:29.657Z,0
2017-08-30T04:00:47.536Z,0
2017-08-30T04:01:27.991Z,0
2017-08-30T04:02:08.449Z,0
2017-08-30T04:02:48.916Z,0
2017-08-30T04:03:29.367Z,0
2017-08-30T04:04:09.815Z,0
2017-08-30T04:04:50.263Z,0
2017-08-30T04:05:30.725Z,0
2017-08-30T04:06:11.182Z,0
2017-08-30T04:06:51.630Z,0
2017-08-30T04:07:32.077Z,0
2017-08-30T04:08:12.530Z,0
2017-08-30T04:08:52.993Z,0
2017-08-30T04:09:33.469Z,0
2017-08-30T04:10:13.931Z,0
2017-08-30T04:10:54.387Z,0
2017-08-30T04:11:34.842Z,0
2017-08-30T04:12:15.294Z,0
2017-08-30T04:12:55.744Z,0
2017-08-30T04:13:36.190Z,0
2017-08-30T04:14:16.643Z,0
2017-08-30T04:14:57.084Z,0
2017-08-30T04:15:37.532Z,0
2017-08-30T04:16:18.017Z,0
2017-08-30T04:16:58.475Z,0
2017-08-30T04:17:38.935Z,0
2017-08-30T04:18:19.373Z,0
2017-08-30T04:18:59.822Z,0
2017-08-30T04:19:40.266Z,0
2017-08-30T04:20:20.774Z,0
2017-08-30T04:21:01.219Z,0
2017-08-30T04:21:41.669Z,0
2017-08-30T04:22:22.262Z,0
2017-08-30T04:23:02.709Z,0
2017-08-30T04:23:43.157Z,0
2017-08-30T04:24:23.607Z,0
2017-08-30T04:25:04.058Z,0
2017-08-30T04:25:44.501Z,0
2017-08-30T04:26:24.948Z,0
2017-08-30T04:27:05.433Z,0
2017-08-30T04:29:18.231Z,0
2017-08-30T04:29:58.683Z,0
2017-08-30T04:30:39.137Z,0
2017-08-30T04:31:19.588Z,0
2017-08-30T04:32:00.040Z,0
2017-08-30T04:32:40.487Z,0
2017-08-30T04:33:20.930Z,0
2017-08-30T04:34:01.384Z,0
2017-08-30T04:34:41.834Z,0
2017-08-30T04:35:22.273Z,0
2017-08-30T04:36:02.728Z,0
2017-08-30T04:36:43.175Z,0
2017-08-30T04:37:23.617Z,0
2017-08-30T04:38:04.075Z,0
2017-08-30T04:38:44.531Z,0
2017-08-30T04:39:24.997Z,0
2017-08-30T04:40:05.446Z,0
2017-08-30T04:40:45.896Z,0
2017-08-30T04:41:26.347Z,0
2017-08-30T04:42:06.786Z,0
2017-08-30T04:42:47.236Z,0
2017-08-30T04:43:27.695Z,0
2017-08-30T04:44:08.151Z,0
2017-08-30T04:44:48.614Z,0
2017-08-30T04:45:29.072Z,0
2017-08-30T04:46:09.525Z,0
2017-08-30T04:46:49.975Z,0
2017-08-30T04:47:30.428Z,0
2017-08-30T04:48:10.915Z,0
2017-08-30T04:48:51.372Z,0
2017-08-30T04:49:31.809Z,0
2017-08-30T04:50:12.261Z,0
2017-08-30T04:50:52.722Z,0
2017-08-30T04:51:33.165Z,0
2017-08-30T04:52:13.605Z,0
2017-08-30T04:52:54.065Z,0
2017-08-30T04:53:34.529Z,0
2017-08-30T04:54:14.986Z,0
2017-08-30T04:54:55.443Z,0
2017-08-30T04:55:35.872Z,0
2017-08-30T04:56:16.317Z,0
2017-08-30T04:56:56.772Z,0
2017-08-30T04:57:37.214Z,0
2017-08-30T04:58:17.664Z,0
2017-08-30T04:58:58.130Z,5
2017-08-30T04:59:38.571Z,5
2017-08-30T05:00:19.015Z,5
2017-08-30T05:00:59.461Z,5
2017-08-30T05:01:39.915Z,5
2017-08-30T05:02:20.360Z,5
2017-08-30T05:03:00.820Z,5
2017-08-30T05:03:41.281Z,5
2017-08-30T05:04:21.734Z,5
2017-08-30T05:05:02.198Z,5
2017-08-30T05:05:42.664Z,5
2017-08-30T05:06:23.116Z,5
2017-08-30T05:07:03.570Z,5
2017-08-30T05:07:44.027Z,5
2017-08-30T05:08:24.481Z,5
2017-08-30T05:09:04.937Z,5
2017-08-30T05:09:45.393Z,5
2017-08-30T05:10:25.839Z,5
2017-08-30T05:11:06.313Z,5
2017-08-30T05:11:46.774Z,5
2017-08-30T05:12:27.227Z,5
2017-08-30T05:13:07.665Z,5
2017-08-30T05:13:48.119Z,5
2017-08-30T05:14:28.574Z,5
2017-08-30T05:15:09.029Z,5
2017-08-30T05:15:49.484Z,5
2017-08-30T05:16:29.940Z,5
2017-08-30T05:17:10.380Z,5
2017-08-30T05:17:50.840Z,5
2017-08-30T05:18:31.271Z,5
2017-08-30T05:19:11.737Z,5
2017-08-30T05:19:52.189Z,5
2017-08-30T05:20:32.636Z,5
2017-08-30T05:21:13.099Z,5
2017-08-30T05:21:53.557Z,5
2017-08-30T05:22:34.013Z,5
2017-08-30T05:23:14.575Z,5
2017-08-30T05:23:55.022Z,5
2017-08-30T05:24:35.467Z,10
2017-08-30T05:25:15.991Z,10
2017-08-30T05:25:56.446Z,10
2017-08-30T05:26:36.902Z,10
2017-08-30T05:27:17.356Z,10
2017-08-30T05:27:57.805Z,10
2017-08-30T05:28:38.251Z,10
2017-08-30T05:29:18.709Z,10
2017-08-30T05:29:59.163Z,10
2017-08-30T05:30:39.638Z,10
2017-08-30T05:31:20.060Z,10
2017-08-30T05:32:00.519Z,10
2017-08-30T05:32:40.974Z,10
2017-08-30T05:33:21.420Z,10
2017-08-30T05:34:01.840Z,10
2017-08-30T05:34:42.291Z,10
2017-08-30T05:35:22.735Z,10
2017-08-30T05:36:03.214Z,10
2017-08-30T05:36:43.672Z,10
2017-08-30T05:37:24.117Z,10
2017-08-30T05:38:04.577Z,10
2017-08-30T05:38:45.038Z,10
2017-08-30T05:39:25.487Z,10
2017-08-30T05:40:05.939Z,10
2017-08-30T05:40:46.391Z,10
2017-08-30T05:41:26.860Z,10
2017-08-30T05:42:07.439Z,10
2017-08-30T05:42:47.867Z,10
2017-08-30T05:43:28.318Z,10
2017-08-30T05:44:08.763Z,10
2017-08-30T05:44:49.217Z,10
2017-08-30T05:45:29.675Z,15
2017-08-30T05:46:10.128Z,15
2017-08-30T05:46:50.592Z,15
2017-08-30T05:47:31.031Z,15
2017-08-30T05:48:11.479Z,15
2017-08-30T05:48:51.941Z,15
2017-08-30T05:49:32.394Z,15
2017-08-30T05:50:12.846Z,15
2017-08-30T05:50:53.317Z,15
2017-08-30T05:51:33.778Z,15
2017-08-30T05:52:14.233Z,15
2017-08-30T05:52:54.687Z,15
2017-08-30T05:53:35.140Z,15
2017-08-30T05:54:15.588Z,15
2017-08-30T05:54:56.042Z,15
2017-08-30T05:55:36.483Z,15
2017-08-30T05:56:16.924Z,15
2017-08-30T05:56:57.377Z,15
2017-08-30T05:57:37.830Z,15
2017-08-30T05:58:18.280Z,15
2017-08-30T05:58:58.724Z,15
2017-08-30T05:59:39.180Z,20
2017-08-30T06:00:19.626Z,15
2017-08-30T06:01:00.067Z,20
2017-08-30T06:01:40.518Z,20
2017-08-30T06:02:20.972Z,20
2017-08-30T06:03:01.408Z,20
2017-08-30T06:03:41.866Z,20
2017-08-30T06:04:22.316Z,20
2017-08-30T06:05:02.763Z,20
2017-08-30T06:05:43.207Z,20
2017-08-30T06:06:23.661Z,20
2017-08-30T06:07:04.115Z,20
2017-08-30T06:07:44.572Z,20
2017-08-30T06:08:25.027Z,20
2017-08-30T06:09:05.479Z,20
2017-08-30T06:09:45.932Z,20
2017-08-30T06:10:26.389Z,20
2017-08-30T06:11:06.847Z,20
2017-08-30T06:11:47.304Z,20
2017-08-30T06:12:27.802Z,20
2017-08-30T06:13:08.265Z,20
2017-08-30T06:13:48.722Z,20
2017-08-30T06:14:29.177Z,20
2017-08-30T06:15:09.629Z,20
2017-08-30T06:15:50.079Z,25
2017-08-30T06:16:30.551Z,25
2017-08-30T06:17:11.007Z,25
2017-08-30T06:17:51.463Z,25
2017-08-30T06:18:31.982Z,25
2017-08-30T06:19:12.439Z,25
2017-08-30T06:19:52.897Z,25
2017-08-30T06:20:33.348Z,25
2017-08-30T06:21:13.797Z,25
2017-08-30T06:21:54.250Z,25
2017-08-30T06:22:34.701Z,25
2017-08-30T06:23:15.185Z,20
2017-08-30T06:23:55.680Z,25
2017-08-30T06:24:36.138Z,25
2017-08-30T06:25:16.595Z,25
2017-08-30T06:25:57.053Z,25
2017-08-30T06:26:37.513Z,25
2017-08-30T06:27:17.965Z,25
2017-08-30T06:27:58.420Z,25
2017-08-30T06:28:38.877Z,25
2017-08-30T06:29:19.338Z,25
2017-08-30T06:29:59.798Z,25
2017-08-30T06:30:40.248Z,25
2017-08-30T06:31:20.707Z,25
2017-08-30T06:32:01.165Z,30
2017-08-30T06:32:41.643Z,30
2017-08-30T06:33:22.075Z,30
2017-08-30T06:34:02.518Z,30
2017-08-30T06:34:42.972Z,30
2017-08-30T06:35:23.420Z,25
2017-08-30T06:36:03.898Z,30
2017-08-30T06:36:44.356Z,30
2017-08-30T06:37:24.814Z,30
2017-08-30T06:38:05.376Z,30
2017-08-30T06:38:45.832Z,25
2017-08-30T06:39:26.283Z,30
2017-08-30T06:40:06.732Z,25
2017-08-30T06:40:47.188Z,30
2017-08-30T06:41:27.643Z,25
2017-08-30T06:42:08.216Z,25
2017-08-30T06:42:48.667Z,25
2017-08-30T06:43:29.122Z,25
2017-08-30T06:44:09.582Z,30
2017-08-30T06:44:50.037Z,30
2017-08-30T06:45:30.490Z,35
2017-08-30T06:46:10.942Z,35
2017-08-30T06:46:51.387Z,35
2017-08-30T06:47:31.838Z,40
2017-08-30T06:48:12.299Z,40
2017-08-30T06:48:52.753Z,40
2017-08-30T06:49:33.210Z,40
2017-08-30T06:50:13.666Z,40
2017-08-30T06:50:54.140Z,40
2017-08-30T06:51:34.575Z,40
2017-08-30T06:52:15.036Z,45
2017-08-30T06:52:55.484Z,45
2017-08-30T06:53:35.934Z,45
2017-08-30T06:54:16.395Z,45
2017-08-30T06:54:56.844Z,45
2017-08-30T06:55:37.292Z,45
2017-08-30T06:56:17.760Z,45
2017-08-30T06:56:58.216Z,50
2017-08-30T06:57:38.674Z,50
2017-08-30T06:58:19.126Z,50
2017-08-30T06:58:59.583Z,50
2017-08-30T06:59:40.043Z,45
2017-08-30T07:00:20.486Z,50
2017-08-30T07:01:00.947Z,50
2017-08-30T07:01:41.415Z,50
2017-08-30T07:02:21.966Z,50
2017-08-30T07:03:02.426Z,50
2017-08-30T07:03:42.882Z,50
2017-08-30T07:04:23.396Z,50
2017-08-30T07:05:03.840Z,50
2017-08-30T07:05:44.303Z,50
2017-08-30T07:06:24.759Z,50
2017-08-30T07:07:05.214Z,50
2017-08-30T07:07:45.670Z,50
2017-08-30T07:08:26.120Z,55
2017-08-30T07:09:06.565Z,55
2017-08-30T07:09:47.022Z,55
2017-08-30T07:10:27.472Z,55
2017-08-30T07:11:07.928Z,55
2017-08-30T07:11:48.384Z,55
2017-08-30T07:12:28.835Z,55
2017-08-30T07:13:09.285Z,50
2017-08-30T07:13:49.755Z,55
2017-08-30T07:14:30.201Z,60
2017-08-30T07:15:10.654Z,60
2017-08-30T07:15:51.113Z,60
2017-08-30T07:16:31.561Z,60
2017-08-30T07:17:12.023Z,60
2017-08-30T07:19:24.814Z,60
2017-08-30T07:20:05.268Z,60
2017-08-30T07:20:45.712Z,60
2017-08-30T07:21:26.152Z,60
2017-08-30T07:22:06.614Z,65
2017-08-30T07:22:47.074Z,65
2017-08-30T07:23:27.530Z,65
2017-08-30T07:24:07.982Z,60
2017-08-30T07:24:48.430Z,60
2017-08-30T07:25:28.895Z,60
2017-08-30T07:26:09.344Z,60
2017-08-30T07:26:49.802Z,60
2017-08-30T07:27:30.255Z,60
2017-08-30T07:28:10.707Z,60
2017-08-30T07:28:51.155Z,65
2017-08-30T07:29:31.616Z,60
2017-08-30T07:30:12.068Z,60
2017-08-30T07:30:52.518Z,60
2017-08-30T07:31:32.961Z,60
2017-08-30T07:32:13.415Z,55
2017-08-30T07:32:53.867Z,55
2017-08-30T07:33:34.329Z,60
2017-08-30T07:34:14.777Z,60
2017-08-30T07:34:55.239Z,60
2017-08-30T07:35:35.688Z,60
2017-08-30T07:36:16.147Z,60
2017-08-30T07:36:56.583Z,65
2017-08-30T07:37:37.040Z,65
2017-08-30T07:38:17.495Z,65
2017-08-30T07:38:57.950Z,70
2017-08-30T07:39:38.405Z,65
2017-08-30T07:40:18.860Z,60
2017-08-30T07:40:59.313Z,60
2017-08-30T07:41:39.768Z,55
2017-08-30T07:42:20.227Z,55
2017-08-30T07:43:00.688Z,60
2017-08-30T07:43:41.145Z,65
2017-08-30T07:44:21.593Z,70
2017-08-30T07:45:02.051Z,75
2017-08-30T07:45:42.511Z,75
2017-08-30T07:46:22.970Z,75
2017-08-30T07:47:03.423Z,70
2017-08-30T07:47:43.890Z,70
2017-08-30T07:48:24.344Z,60
2017-08-30T07:49:04.817Z,60
2017-08-30T07:49:45.273Z,60
2017-08-30T07:50:25.729Z,65
2017-08-30T07:51:06.169Z,65
2017-08-30T07:51:46.626Z,65
2017-08-30T07:52:27.068Z,65
2017-08-30T07:53:07.532Z,65
2017-08-30T07:53:47.984Z,65
2017-08-30T07:56:15.929Z,70
2017-08-30T07:56:56.383Z,75
2017-08-30T07:57:36.838Z,80
2017-08-30T07:58:17.297Z,80
2017-08-30T07:58:57.750Z,80
2017-08-30T07:59:38.201Z,80
2017-08-30T08:00:18.647Z,80
2017-08-30T08:00:59.104Z,80
2017-08-30T08:01:39.576Z,80
2017-08-30T08:02:20.024Z,80
2017-08-30T08:03:00.480Z,75
2017-08-30T08:03:40.930Z,75
2017-08-30T08:04:21.388Z,70
2017-08-30T08:05:01.827Z,70
2017-08-30T08:05:42.293Z,75
2017-08-30T08:06:22.763Z,75
2017-08-30T08:07:03.205Z,75
2017-08-30T08:07:43.657Z,70
2017-08-30T08:08:24.112Z,70
2017-08-30T08:09:04.567Z,70
2017-08-30T08:09:45.040Z,65
2017-08-30T08:10:25.488Z,70
2017-08-30T08:11:05.933Z,75
2017-08-30T08:11:46.391Z,75
2017-08-30T08:12:28.673Z,75
2017-08-30T08:13:09.130Z,70
2017-08-30T08:13:49.585Z,65
2017-08-30T08:14:30.035Z,60
2017-08-30T08:15:10.442Z,55
2017-08-30T08:15:50.900Z,50
2017-08-30T08:16:31.342Z,50
2017-08-30T08:17:11.803Z,55
2017-08-30T08:17:52.243Z,50
2017-08-30T08:18:32.699Z,45
2017-08-30T08:19:13.168Z,45
2017-08-30T08:19:53.653Z,50
2017-08-30T08:20:34.109Z,50
2017-08-30T08:21:14.557Z,55
2017-08-30T08:21:55.013Z,60
2017-08-30T08:22:35.468Z,60
2017-08-30T08:23:15.923Z,55
2017-08-30T08:23:56.382Z,55
2017-08-30T08:24:36.828Z,60
2017-08-30T08:25:17.287Z,60
2017-08-30T08:25:57.740Z,65
2017-08-30T08:26:38.200Z,65
2017-08-30T08:27:18.660Z,55
2017-08-30T08:27:59.114Z,70
2017-08-30T08:28:39.578Z,65
2017-08-30T08:29:20.036Z,75
2017-08-30T08:30:00.482Z,80
2017-08-30T08:30:40.933Z,90
2017-08-30T08:31:21.385Z,90
2017-08-30T08:32:01.841Z,95
2017-08-30T08:32:42.298Z,105
2017-08-30T08:33:22.817Z,105
2017-08-30T08:34:03.273Z,110
2017-08-30T08:34:43.717Z,110
2017-08-30T08:35:24.189Z,115
2017-08-30T08:36:04.620Z,95
2017-08-30T08:36:45.069Z,125
2017-08-30T08:37:25.523Z,125
2017-08-30T08:38:05.968Z,125
2017-08-30T08:38:46.412Z,125
2017-08-30T08:39:26.873Z,125
2017-08-30T08:40:07.339Z,125
2017-08-30T08:40:47.786Z,125
2017-08-30T08:41:28.240Z,125
2017-08-30T08:42:08.693Z,125
2017-08-30T08:42:49.148Z,130
2017-08-30T08:43:29.621Z,125
2017-08-30T08:44:10.064Z,125
2017-08-30T08:44:50.522Z,125
2017-08-30T08:45:30.981Z,125
2017-08-30T08:46:11.442Z,120
2017-08-30T08:46:51.896Z,120
2017-08-30T08:47:32.344Z,125
2017-08-30T08:48:12.792Z,125
2017-08-30T08:50:31.422Z,135
2017-08-30T08:51:12.013Z,135
2017-08-30T08:51:52.790Z,130
2017-08-30T08:52:33.787Z,115
2017-08-30T08:53:14.257Z,120
2017-08-30T08:53:54.704Z,130
2017-08-30T08:54:35.163Z,115
2017-08-30T08:55:15.652Z,120
2017-08-30T08:55:56.108Z,125
2017-08-30T08:56:36.547Z,125
2017-08-30T08:57:17.009Z,130
2017-08-30T08:57:58.029Z,130
2017-08-30T08:58:38.457Z,135
2017-08-30T08:59:18.909Z,135
2017-08-30T08:59:59.855Z,135
2017-08-30T09:00:40.147Z,140
2017-08-30T09:01:20.599Z,140
2017-08-30T09:03:59.704Z,145
2017-08-30T09:04:39.319Z,145
2017-08-30T09:05:19.773Z,145
2017-08-30T09:06:00.229Z,145
2017-08-30T09:06:40.682Z,140
2017-08-30T09:07:21.127Z,145
2017-08-30T09:08:01.606Z,145
2017-08-30T09:08:42.065Z,145
2017-08-30T09:09:22.563Z,145
2017-08-30T09:10:03.048Z,145
2017-08-30T09:10:43.505Z,145
2017-08-30T09:11:23.938Z,145
2017-08-30T09:12:04.386Z,145
2017-08-30T09:12:45.048Z,145
2017-08-30T09:13:25.572Z,145
2017-08-30T09:14:05.971Z,145
2017-08-30T09:14:46.417Z,145
2017-08-30T09:15:26.872Z,145
2017-08-30T09:16:07.330Z,145
2017-08-30T09:16:47.790Z,145
2017-08-30T09:17:28.249Z,145
2017-08-30T09:18:08.708Z,150
2017-08-30T09:18:49.156Z,150
2017-08-30T09:19:29.611Z,150
2017-08-30T09:20:10.060Z,150
2017-08-30T09:20:50.506Z,150
2017-08-30T09:21:31.030Z,150
2017-08-30T09:22:11.471Z,150
2017-08-30T09:22:51.918Z,150
2017-08-30T09:23:32.363Z,150
2017-08-30T09:26:10.625Z,150
2017-08-30T09:26:51.082Z,155
2017-08-30T09:27:31.536Z,155
2017-08-30T09:28:11.992Z,155
2017-08-30T09:28:52.458Z,155
2017-08-30T09:29:32.928Z,155
2017-08-30T09:30:13.396Z,155
2017-08-30T09:30:53.853Z,160
2017-08-30T09:31:34.300Z,160
2017-08-30T09:32:14.748Z,160
2017-08-30T09:32:55.198Z,160
2017-08-30T09:33:35.879Z,160
2017-08-30T09:34:16.053Z,155
2017-08-30T09:34:56.511Z,135
2017-08-30T09:35:36.972Z,130
2017-08-30T09:36:17.427Z,140
2017-08-30T09:36:57.902Z,125
2017-08-30T09:37:38.336Z,110
2017-08-30T09:38:18.780Z,110
2017-08-30T09:38:59.230Z,110
2017-08-30T09:39:39.677Z,115
2017-08-30T09:40:20.127Z,125
2017-08-30T09:41:00.581Z,130
2017-08-30T09:41:41.426Z,145
2017-08-30T09:42:21.888Z,135
2017-08-30T09:43:02.402Z,140
2017-08-30T09:43:42.855Z,135
2017-08-30T09:44:23.317Z,135
2017-08-30T09:45:03.776Z,130
2017-08-30T09:45:44.239Z,125
2017-08-30T09:46:24.704Z,115
2017-08-30T09:47:05.156Z,100
2017-08-30T09:47:45.604Z,100
2017-08-30T09:48:26.141Z,105
2017-08-30T09:49:06.601Z,90
2017-08-30T09:49:47.059Z,85
2017-08-30T09:50:27.509Z,85
2017-08-30T09:51:07.964Z,95
2017-08-30T09:51:48.396Z,105
2017-08-30T09:52:28.851Z,100
2017-08-30T09:53:09.298Z,100
2017-08-30T09:53:49.761Z,110
2017-08-30T09:54:30.223Z,110
2017-08-30T09:55:10.694Z,105
2017-08-30T09:55:51.137Z,120
2017-08-30T09:56:31.599Z,110
2017-08-30T09:57:12.059Z,110
2017-08-30T09:57:52.507Z,115
2017-08-30T09:58:32.960Z,120
2017-08-30T09:59:13.412Z,135